createdAt,value
2022-12-13T00:02:56.063Z,13.27
2022-12-13T00:08:00.138Z,15.00
2022-12-13T00:13:02.642Z,15.63
2022-12-13T00:18:05.054Z,17.90
2022-12-13T00:23:07.445Z,17.90
2022-12-13T00:28:10.049Z,13.87
2022-12-13T00:33:12.493Z,12.10
2022-12-13T00:38:14.898Z,15.53
2022-12-13T00:43:17.996Z,11.03
2022-12-13T00:48:20.380Z,17.93
2022-12-13T00:53:22.844Z,11.47
2022-12-13T00:58:25.329Z,13.43
2022-12-13T01:03:27.775Z,13.93
2022-12-13T01:08:30.257Z,12.73
2022-12-13T01:13:32.890Z,13.50
2022-12-13T01:18:36.816Z,13.13
2022-12-13T01:23:39.951Z,22.20
2022-12-13T01:28:42.971Z,53.20
2022-12-13T01:33:45.654Z,11.90
2022-12-13T01:38:48.088Z,17.10
2022-12-13T01:43:53.593Z,12.47
2022-12-13T01:49:02.419Z,14.70
2022-12-13T01:54:09.626Z,18.57
2022-12-13T01:59:13.371Z,45.50
2022-12-13T02:04:20.859Z,25.17
2022-12-13T02:09:23.763Z,15.77
2022-12-13T02:14:26.163Z,13.73
2022-12-13T02:19:43.931Z,14.87
2022-12-13T02:25:05.364Z,32.20
2022-12-13T02:30:23.165Z,32.30
2022-12-13T02:35:39.229Z,23.90
2022-12-13T02:40:53.717Z,15.40
2022-12-13T02:46:00.942Z,13.80
2022-12-13T02:51:05.959Z,10.43
2022-12-13T02:56:08.702Z,17.83
2022-12-13T03:01:29.819Z,126.37
2022-12-13T03:06:53.930Z,21.67
2022-12-13T03:12:41.204Z,13.13
2022-12-13T03:18:06.502Z,13.97
2022-12-13T03:23:11.141Z,20.63
2022-12-13T03:28:13.658Z,18.70
2022-12-13T03:33:16.116Z,16.90
2022-12-13T03:38:22.395Z,14.20
2022-12-13T03:43:25.734Z,15.93
2022-12-13T03:48:28.211Z,21.70
2022-12-13T03:53:32.599Z,18.97
2022-12-13T03:58:38.247Z,20.30
2022-12-13T04:03:43.404Z,16.17
2022-12-13T04:08:45.836Z,16.20
2022-12-13T04:13:48.418Z,25.17
2022-12-13T04:18:50.859Z,16.37
2022-12-13T04:23:53.373Z,14.63
2022-12-13T04:28:56.030Z,14.83
2022-12-13T04:33:58.419Z,17.87
2022-12-13T04:39:02.601Z,13.50
2022-12-13T04:44:07.534Z,18.47
2022-12-13T04:49:30.727Z,22.53
2022-12-13T04:54:36.467Z,15.47
2022-12-13T04:59:40.674Z,20.10
2022-12-13T05:04:45.088Z,19.73
2022-12-13T05:09:47.452Z,13.83
2022-12-13T05:14:50.166Z,17.50
2022-12-13T05:19:52.566Z,15.47
2022-12-13T05:24:54.977Z,20.97
2022-12-13T05:30:02.727Z,15.77
2022-12-13T05:35:07.561Z,20.47
2022-12-13T05:40:10.729Z,19.60
2022-12-13T05:45:13.628Z,16.97
2022-12-13T05:50:17.370Z,21.43
2022-12-13T05:55:20.568Z,21.07
2022-12-13T06:00:28.871Z,19.87
2022-12-13T06:05:32.991Z,43.77
2022-12-13T06:10:35.633Z,20.20
2022-12-13T06:15:38.535Z,20.20
2022-12-13T06:20:58.153Z,26.10
2022-12-13T06:26:03.660Z,20.57
2022-12-13T06:31:06.167Z,24.47
2022-12-13T06:36:09.126Z,17.00
2022-12-13T06:41:14.645Z,16.73
2022-12-13T06:46:17.124Z,15.67
2022-12-13T06:51:23.108Z,12.83
2022-12-13T06:56:34.709Z,16.77
2022-12-13T07:01:37.888Z,15.43
2022-12-13T07:06:40.451Z,15.57
2022-12-13T07:11:44.686Z,17.07
2022-12-13T07:16:50.863Z,19.87
2022-12-13T07:21:53.274Z,25.53
2022-12-13T07:27:04.044Z,19.17
2022-12-13T07:32:06.562Z,15.90
2022-12-13T07:37:09.587Z,24.83
2022-12-13T07:42:35.781Z,31.63
2022-12-13T07:47:38.814Z,20.87
2022-12-13T07:52:42.453Z,15.53
2022-12-13T07:57:45.203Z,17.27
2022-12-13T08:02:49.191Z,35.63
2022-12-13T08:07:51.706Z,48.93
2022-12-13T08:12:57.635Z,57.03
2022-12-13T08:18:02.133Z,49.23
2022-12-13T08:23:04.684Z,50.33
2022-12-13T08:28:07.144Z,35.37
2022-12-13T08:33:09.525Z,38.83
2022-12-13T08:38:12.104Z,98.03
2022-12-13T08:43:14.528Z,25.07
2022-12-13T08:48:16.971Z,23.03
2022-12-13T08:53:28.421Z,20.30
2022-12-13T08:58:32.829Z,47.53
2022-12-13T09:03:36.305Z,37.47
2022-12-13T09:08:39.629Z,47.40
2022-12-13T09:13:43.811Z,40.77
2022-12-13T09:18:47.252Z,43.77
2022-12-13T09:24:01.973Z,34.97
2022-12-13T09:29:10.347Z,25.20
2022-12-13T09:34:15.260Z,22.43
2022-12-13T09:39:17.699Z,23.07
2022-12-13T09:44:42.754Z,35.47
2022-12-13T09:49:52.644Z,23.63
2022-12-13T09:55:00.170Z,20.73
2022-12-13T10:00:07.139Z,21.13
2022-12-13T10:05:37.275Z,27.40
2022-12-13T10:10:43.066Z,19.23
2022-12-13T10:16:13.338Z,25.83
2022-12-13T10:21:30.346Z,19.77
2022-12-13T10:26:38.012Z,15.77
2022-12-13T10:31:49.476Z,17.20
2022-12-13T10:36:52.494Z,15.23
2022-12-13T10:42:04.495Z,16.63
2022-12-13T10:47:09.828Z,50.27
2022-12-13T10:52:31.933Z,47.27
2022-12-13T10:57:34.666Z,39.97
2022-12-13T11:02:41.754Z,23.10
2022-12-13T11:07:44.622Z,20.83
2022-12-13T11:12:47.989Z,19.30
2022-12-13T11:18:19.141Z,24.60
2022-12-13T11:23:43.307Z,24.97
2022-12-13T11:29:00.858Z,24.33
2022-12-13T11:34:11.141Z,24.00
2022-12-13T11:39:20.340Z,14.30
2022-12-13T11:44:48.251Z,37.90
2022-12-13T11:49:52.407Z,33.50
2022-12-13T11:55:15.343Z,21.03
2022-12-13T12:00:36.610Z,27.97
2022-12-13T12:05:45.735Z,51.90
2022-12-13T12:10:51.450Z,31.67
2022-12-13T12:16:14.221Z,38.43
2022-12-13T12:21:56.458Z,41.77
2022-12-13T12:27:06.526Z,70.67
2022-12-13T12:32:37.196Z,31.50
2022-12-13T12:37:54.534Z,55.40
2022-12-13T12:43:15.325Z,24.57
2022-12-13T12:49:00.730Z,72.50
2022-12-13T12:54:11.888Z,60.20
2022-12-13T12:59:32.330Z,65.50
2022-12-13T13:04:43.054Z,47.67
2022-12-13T13:09:46.013Z,65.60
2022-12-13T13:14:48.442Z,41.97
2022-12-13T13:20:14.359Z,39.97
2022-12-13T13:25:26.150Z,39.80
2022-12-13T13:30:30.164Z,54.90
2022-12-13T13:35:41.219Z,55.47
2022-12-13T13:40:44.037Z,83.13
2022-12-13T13:45:49.462Z,66.27
2022-12-13T13:51:10.764Z,59.87
2022-12-13T13:56:35.805Z,29.17
2022-12-13T14:02:13.549Z,44.77
2022-12-13T14:07:55.931Z,54.93
2022-12-13T14:13:31.877Z,124.50
2022-12-13T14:19:07.748Z,41.40
2022-12-13T14:24:28.423Z,57.57
2022-12-13T14:29:34.673Z,50.30
2022-12-13T14:34:38.339Z,54.53
2022-12-13T14:39:45.289Z,41.77
2022-12-13T14:44:47.764Z,46.33
2022-12-13T14:49:55.146Z,53.07
2022-12-13T14:55:04.602Z,148.40
2022-12-13T15:00:28.199Z,224.20
2022-12-13T15:05:56.275Z,115.57
2022-12-13T15:10:59.845Z,99.50
2022-12-13T15:16:10.828Z,124.30
2022-12-13T15:21:25.012Z,57.43
2022-12-13T15:26:34.248Z,113.73
2022-12-13T15:31:36.838Z,86.90
2022-12-13T15:36:39.493Z,40.23
2022-12-13T15:41:47.369Z,46.63
2022-12-13T15:46:53.237Z,69.63
2022-12-13T15:52:03.738Z,108.47
2022-12-13T15:57:15.421Z,75.40
2022-12-13T16:02:22.423Z,153.53
2022-12-13T16:07:35.914Z,77.30
2022-12-13T16:12:47.664Z,79.10
2022-12-13T16:17:56.723Z,80.10
2022-12-13T16:23:08.771Z,84.47
2022-12-13T16:28:13.492Z,172.10
2022-12-13T16:33:30.352Z,106.43
2022-12-13T16:38:33.409Z,89.40
2022-12-13T16:43:39.645Z,73.17
2022-12-13T16:48:42.868Z,84.33
2022-12-13T16:53:45.586Z,81.53
2022-12-13T16:58:50.388Z,77.03
2022-12-13T17:03:53.137Z,76.07
2022-12-13T17:08:56.939Z,126.83
2022-12-13T17:14:00.178Z,91.80
2022-12-13T17:19:02.542Z,97.40
2022-12-13T17:24:05.159Z,99.20
2022-12-13T17:29:10.881Z,73.70
2022-12-13T17:34:16.982Z,63.33
2022-12-13T17:39:19.480Z,66.63
2022-12-13T17:44:22.015Z,68.47
2022-12-13T17:49:25.129Z,104.10
2022-12-13T17:54:28.716Z,84.67
2022-12-13T17:59:31.107Z,84.67
2022-12-13T18:04:33.491Z,80.37
2022-12-13T18:09:36.299Z,92.37
2022-12-13T18:14:39.185Z,72.87
2022-12-13T18:19:41.566Z,66.33
2022-12-13T18:24:43.957Z,102.90
2022-12-13T18:29:54.891Z,110.73
2022-12-13T18:34:57.960Z,114.80
2022-12-13T18:40:00.330Z,113.87
2022-12-13T18:45:04.045Z,107.73
2022-12-13T18:50:06.718Z,120.23
2022-12-13T18:55:09.572Z,93.63
2022-12-13T19:00:12.339Z,83.60
2022-12-13T19:05:16.733Z,88.47
2022-12-13T19:10:19.528Z,99.57
2022-12-13T19:15:21.939Z,88.40
2022-12-13T19:20:24.316Z,98.67
2022-12-13T19:25:26.830Z,114.87
2022-12-13T19:30:29.183Z,313.93
2022-12-13T19:35:31.910Z,264.27
2022-12-13T19:40:34.546Z,204.07
2022-12-13T19:45:36.932Z,214.23
2022-12-13T19:50:40.851Z,145.40
2022-12-13T19:55:45.427Z,230.03
2022-12-13T20:00:50.883Z,265.97
2022-12-13T20:06:01.120Z,174.40
2022-12-13T20:11:09.802Z,225.10
2022-12-13T20:16:17.658Z,292.20
2022-12-13T20:21:20.200Z,305.97
2022-12-13T20:26:24.954Z,349.80
2022-12-13T20:31:33.595Z,339.60
2022-12-13T20:36:37.141Z,334.87
2022-12-13T20:41:41.214Z,312.03
2022-12-13T20:46:43.649Z,277.67
2022-12-13T20:51:46.080Z,223.30
2022-12-13T20:56:48.465Z,301.03
2022-12-13T21:01:51.033Z,304.90
2022-12-13T21:06:53.538Z,276.40
2022-12-13T21:11:56.879Z,278.83
2022-12-13T21:17:01.569Z,310.93
2022-12-13T21:22:03.997Z,282.80
2022-12-13T21:27:06.427Z,319.80
2022-12-13T21:32:09.055Z,304.03
2022-12-13T21:37:11.642Z,270.47
2022-12-13T21:42:14.013Z,236.47
2022-12-13T21:47:16.382Z,224.77
2022-12-13T21:52:18.718Z,207.47
2022-12-13T21:57:39.699Z,185.47
2022-12-13T22:02:42.185Z,195.23
2022-12-13T22:07:44.700Z,215.33
2022-12-13T22:12:50.997Z,222.07
2022-12-13T22:17:53.438Z,281.10
2022-12-13T22:22:56.241Z,259.50
2022-12-13T22:27:58.654Z,264.93
2022-12-13T22:33:01.082Z,288.90
2022-12-13T22:38:03.537Z,237.20
2022-12-13T22:43:07.723Z,227.80
2022-12-13T22:48:10.423Z,316.13
2022-12-13T22:53:12.831Z,351.13
2022-12-13T22:58:15.323Z,342.10
2022-12-13T23:03:17.974Z,282.80
2022-12-13T23:08:20.464Z,282.70
2022-12-13T23:13:23.245Z,271.53
2022-12-13T23:18:25.917Z,253.47
2022-12-13T23:23:30.038Z,285.20
2022-12-13T23:28:33.059Z,291.17
2022-12-13T23:33:36.799Z,322.67
2022-12-13T23:38:40.072Z,303.53
2022-12-13T23:43:44.395Z,379.93
2022-12-13T23:48:51.093Z,396.00
2022-12-13T23:53:53.905Z,372.53
2022-12-13T23:58:56.715Z,322.93
